sensor_id;sensor_type;location;lat;lon;timestamp;P1;durP1;ratioP1;P2;durP2;ratioP2
45867;SDS011;31582;45.490;7.860;2023-05-07T00:00:13;5.47;;;4.30;;
45867;SDS011;31582;45.490;7.860;2023-05-07T00:02:42;4.50;;;4.10;;
45867;SDS011;31582;45.490;7.860;2023-05-07T00:05:09;4.45;;;3.70;;
45867;SDS011;31582;45.490;7.860;2023-05-07T00:07:36;3.30;;;3.10;;
45867;SDS011;31582;45.490;7.860;2023-05-07T00:10:04;3.38;;;3.08;;
45867;SDS011;31582;45.490;7.860;2023-05-07T00:12:32;4.43;;;4.10;;
45867;SDS011;31582;45.490;7.860;2023-05-07T00:15:03;4.03;;;3.72;;
45867;SDS011;31582;45.490;7.860;2023-05-07T00:17:30;3.65;;;3.42;;
45867;SDS011;31582;45.490;7.860;2023-05-07T00:19:59;3.70;;;3.35;;
45867;SDS011;31582;45.490;7.860;2023-05-07T00:22:25;4.55;;;4.25;;
45867;SDS011;31582;45.490;7.860;2023-05-07T00:24:52;3.85;;;3.65;;
45867;SDS011;31582;45.490;7.860;2023-05-07T00:27:19;4.10;;;3.80;;
45867;SDS011;31582;45.490;7.860;2023-05-07T00:29:46;3.80;;;3.50;;
45867;SDS011;31582;45.490;7.860;2023-05-07T00:32:13;3.92;;;3.63;;
45867;SDS011;31582;45.490;7.860;2023-05-07T00:34:40;5.88;;;5.40;;
45867;SDS011;31582;45.490;7.860;2023-05-07T00:37:07;3.90;;;3.60;;
45867;SDS011;31582;45.490;7.860;2023-05-07T00:39:35;6.00;;;5.50;;
45867;SDS011;31582;45.490;7.860;2023-05-07T00:42:02;4.23;;;3.93;;
45867;SDS011;31582;45.490;7.860;2023-05-07T00:44:30;4.55;;;4.22;;
45867;SDS011;31582;45.490;7.860;2023-05-07T00:46:57;5.03;;;4.63;;
45867;SDS011;31582;45.490;7.860;2023-05-07T00:49:25;5.37;;;4.97;;
45867;SDS011;31582;45.490;7.860;2023-05-07T00:52:05;5.60;;;5.03;;
45867;SDS011;31582;45.490;7.860;2023-05-07T00:54:34;6.40;;;5.85;;
45867;SDS011;31582;45.490;7.860;2023-05-07T00:57:02;6.00;;;5.50;;
45867;SDS011;31582;45.490;7.860;2023-05-07T00:59:31;4.70;;;4.35;;
45867;SDS011;31582;45.490;7.860;2023-05-07T01:01:59;4.30;;;4.00;;
45867;SDS011;31582;45.490;7.860;2023-05-07T14:59:01;1.25;;;0.82;;
45867;SDS011;31582;45.490;7.860;2023-05-07T15:01:31;0.70;;;0.50;;
45867;SDS011;31582;45.490;7.860;2023-05-07T15:03:58;0.50;;;0.50;;
45867;SDS011;31582;45.490;7.860;2023-05-07T15:06:26;0.63;;;0.63;;
45867;SDS011;31582;45.490;7.860;2023-05-07T15:08:53;0.60;;;0.60;;
45867;SDS011;31582;45.490;7.860;2023-05-07T15:11:19;2.10;;;0.60;;
45867;SDS011;31582;45.490;7.860;2023-05-07T15:13:46;2.53;;;1.00;;
45867;SDS011;31582;45.490;7.860;2023-05-07T15:16:13;1.20;;;0.70;;
45867;SDS011;31582;45.490;7.860;2023-05-07T15:18:40;1.13;;;0.90;;
45867;SDS011;31582;45.490;7.860;2023-05-07T15:21:07;0.80;;;0.70;;
45867;SDS011;31582;45.490;7.860;2023-05-07T15:23:34;1.20;;;0.77;;
45867;SDS011;31582;45.490;7.860;2023-05-07T15:26:01;1.08;;;0.88;;
45867;SDS011;31582;45.490;7.860;2023-05-07T15:28:28;1.07;;;0.70;;
45867;SDS011;31582;45.490;7.860;2023-05-07T15:30:55;2.33;;;0.98;;
45867;SDS011;31582;45.490;7.860;2023-05-07T15:33:22;1.10;;;0.82;;
45867;SDS011;31582;45.490;7.860;2023-05-07T15:35:50;1.35;;;0.88;;
45867;SDS011;31582;45.490;7.860;2023-05-07T15:38:16;1.75;;;0.90;;
45867;SDS011;31582;45.490;7.860;2023-05-07T15:40:43;0.80;;;0.80;;
45867;SDS011;31582;45.490;7.860;2023-05-07T15:43:11;0.80;;;0.80;;
45867;SDS011;31582;45.490;7.860;2023-05-07T15:45:41;2.30;;;0.90;;
45867;SDS011;31582;45.490;7.860;2023-05-07T15:48:10;1.08;;;0.80;;
45867;SDS011;31582;45.490;7.860;2023-05-07T15:50:37;0.70;;;0.70;;
45867;SDS011;31582;45.490;7.860;2023-05-07T15:53:04;0.75;;;0.70;;
45867;SDS011;31582;45.490;7.860;2023-05-07T15:55:31;1.10;;;0.85;;
45867;SDS011;31582;45.490;7.860;2023-05-07T15:57:59;0.90;;;0.73;;
45867;SDS011;31582;45.490;7.860;2023-05-07T16:00:26;0.70;;;0.70;;
45867;SDS011;31582;45.490;7.860;2023-05-07T16:02:53;1.92;;;1.10;;
45867;SDS011;31582;45.490;7.860;2023-05-07T16:05:20;1.10;;;0.88;;
45867;SDS011;31582;45.490;7.860;2023-05-07T16:07:47;1.50;;;1.00;;
45867;SDS011;31582;45.490;7.860;2023-05-07T16:10:15;1.40;;;0.98;;
45867;SDS011;31582;45.490;7.860;2023-05-07T16:12:43;1.45;;;0.95;;
45867;SDS011;31582;45.490;7.860;2023-05-07T16:15:10;0.93;;;0.85;;
45867;SDS011;31582;45.490;7.860;2023-05-07T16:17:37;1.25;;;0.90;;
45867;SDS011;31582;45.490;7.860;2023-05-07T16:20:04;1.00;;;0.80;;
45867;SDS011;31582;45.490;7.860;2023-05-07T16:22:32;1.08;;;0.90;;
45867;SDS011;31582;45.490;7.860;2023-05-07T16:24:59;1.10;;;1.00;;
45867;SDS011;31582;45.490;7.860;2023-05-07T16:27:26;0.85;;;0.80;;
45867;SDS011;31582;45.490;7.860;2023-05-07T16:29:53;1.73;;;1.10;;
45867;SDS011;31582;45.490;7.860;2023-05-07T16:32:20;0.80;;;0.73;;
45867;SDS011;31582;45.490;7.860;2023-05-07T16:34:47;1.80;;;0.90;;
45867;SDS011;31582;45.490;7.860;2023-05-07T16:37:14;1.10;;;1.00;;
45867;SDS011;31582;45.490;7.860;2023-05-07T16:39:41;0.90;;;0.90;;
45867;SDS011;31582;45.490;7.860;2023-05-07T16:42:07;1.23;;;1.10;;
45867;SDS011;31582;45.490;7.860;2023-05-07T16:44:34;1.08;;;1.00;;
45867;SDS011;31582;45.490;7.860;2023-05-07T16:47:01;1.50;;;1.40;;
45867;SDS011;31582;45.490;7.860;2023-05-07T16:49:28;1.30;;;1.20;;
45867;SDS011;31582;45.490;7.860;2023-05-07T16:51:55;1.40;;;1.30;;
45867;SDS011;31582;45.490;7.860;2023-05-07T16:54:22;1.80;;;1.70;;
45867;SDS011;31582;45.490;7.860;2023-05-07T16:56:49;1.50;;;1.40;;
45867;SDS011;31582;45.490;7.860;2023-05-07T16:59:16;1.27;;;1.23;;
45867;SDS011;31582;45.490;7.860;2023-05-07T17:01:43;1.40;;;1.30;;
45867;SDS011;31582;45.490;7.860;2023-05-07T17:04:10;1.02;;;1.02;;
45867;SDS011;31582;45.490;7.860;2023-05-07T17:06:37;1.23;;;1.13;;
45867;SDS011;31582;45.490;7.860;2023-05-07T17:09:04;2.78;;;2.58;;
45867;SDS011;31582;45.490;7.860;2023-05-07T17:11:31;3.08;;;2.63;;
45867;SDS011;31582;45.490;7.860;2023-05-07T17:14:00;2.72;;;2.20;;
45867;SDS011;31582;45.490;7.860;2023-05-07T17:16:30;2.83;;;2.03;;
45867;SDS011;31582;45.490;7.860;2023-05-07T17:18:57;2.25;;;2.15;;
45867;SDS011;31582;45.490;7.860;2023-05-07T17:21:24;2.10;;;2.00;;
45867;SDS011;31582;45.490;7.860;2023-05-07T17:23:52;4.00;;;2.03;;
45867;SDS011;31582;45.490;7.860;2023-05-07T17:26:19;3.05;;;2.63;;
45867;SDS011;31582;45.490;7.860;2023-05-07T17:28:46;3.80;;;2.78;;
45867;SDS011;31582;45.490;7.860;2023-05-07T17:31:13;2.58;;;2.38;;
45867;SDS011;31582;45.490;7.860;2023-05-07T17:33:40;2.63;;;2.42;;
45867;SDS011;31582;45.490;7.860;2023-05-07T17:36:07;3.30;;;2.95;;
45867;SDS011;31582;45.490;7.860;2023-05-07T17:38:36;3.72;;;2.60;;
45867;SDS011;31582;45.490;7.860;2023-05-07T17:41:03;2.90;;;2.70;;
45867;SDS011;31582;45.490;7.860;2023-05-07T17:43:30;3.53;;;3.17;;
45867;SDS011;31582;45.490;7.860;2023-05-07T17:45:57;4.68;;;2.97;;
45867;SDS011;31582;45.490;7.860;2023-05-07T17:48:24;3.40;;;3.00;;
45867;SDS011;31582;45.490;7.860;2023-05-07T17:50:57;3.38;;;3.03;;
45867;SDS011;31582;45.490;7.860;2023-05-07T17:53:26;3.60;;;3.30;;
45867;SDS011;31582;45.490;7.860;2023-05-07T17:55:53;4.32;;;3.60;;
45867;SDS011;31582;45.490;7.860;2023-05-07T17:58:21;3.90;;;3.38;;
45867;SDS011;31582;45.490;7.860;2023-05-07T18:00:50;5.78;;;3.65;;
45867;SDS011;31582;45.490;7.860;2023-05-07T18:03:19;4.55;;;3.45;;
45867;SDS011;31582;45.490;7.860;2023-05-07T18:05:46;4.03;;;3.60;;
45867;SDS011;31582;45.490;7.860;2023-05-07T18:08:13;6.00;;;4.20;;
45867;SDS011;31582;45.490;7.860;2023-05-07T18:10:40;5.40;;;4.07;;
45867;SDS011;31582;45.490;7.860;2023-05-07T18:13:06;5.63;;;3.90;;
45867;SDS011;31582;45.490;7.860;2023-05-07T18:15:34;5.15;;;4.20;;
45867;SDS011;31582;45.490;7.860;2023-05-07T18:18:00;4.45;;;3.88;;
45867;SDS011;31582;45.490;7.860;2023-05-07T18:20:27;4.25;;;3.85;;
45867;SDS011;31582;45.490;7.860;2023-05-07T18:22:54;5.53;;;4.47;;
45867;SDS011;31582;45.490;7.860;2023-05-07T18:25:21;4.40;;;3.88;;
45867;SDS011;31582;45.490;7.860;2023-05-07T18:27:48;4.65;;;4.22;;
45867;SDS011;31582;45.490;7.860;2023-05-07T18:30:15;4.55;;;4.10;;
45867;SDS011;31582;45.490;7.860;2023-05-07T18:32:42;5.93;;;4.93;;
45867;SDS011;31582;45.490;7.860;2023-05-07T18:35:09;4.70;;;4.25;;
45867;SDS011;31582;45.490;7.860;2023-05-07T18:37:35;4.70;;;4.20;;
45867;SDS011;31582;45.490;7.860;2023-05-07T18:40:02;4.25;;;3.85;;
45867;SDS011;31582;45.490;7.860;2023-05-07T18:42:31;7.20;;;4.70;;
45867;SDS011;31582;45.490;7.860;2023-05-07T18:45:02;4.97;;;4.10;;
45867;SDS011;31582;45.490;7.860;2023-05-07T18:47:29;6.90;;;4.63;;
45867;SDS011;31582;45.490;7.860;2023-05-07T18:49:56;5.53;;;4.00;;
45867;SDS011;31582;45.490;7.860;2023-05-07T18:52:23;5.68;;;4.00;;
45867;SDS011;31582;45.490;7.860;2023-05-07T18:54:51;3.70;;;3.30;;
45867;SDS011;31582;45.490;7.860;2023-05-07T18:57:18;3.70;;;3.22;;
45867;SDS011;31582;45.490;7.860;2023-05-07T18:59:44;3.15;;;2.95;;
45867;SDS011;31582;45.490;7.860;2023-05-07T19:02:11;2.85;;;2.65;;
45867;SDS011;31582;45.490;7.860;2023-05-07T19:04:39;3.10;;;2.47;;
45867;SDS011;31582;45.490;7.860;2023-05-07T19:07:06;2.60;;;1.90;;
45867;SDS011;31582;45.490;7.860;2023-05-07T19:09:34;2.78;;;2.20;;
45867;SDS011;31582;45.490;7.860;2023-05-07T19:12:01;2.42;;;1.83;;
45867;SDS011;31582;45.490;7.860;2023-05-07T19:14:28;3.30;;;2.65;;
45867;SDS011;31582;45.490;7.860;2023-05-07T19:16:55;2.40;;;2.20;;
45867;SDS011;31582;45.490;7.860;2023-05-07T19:19:22;3.33;;;2.73;;
45867;SDS011;31582;45.490;7.860;2023-05-07T19:21:49;2.60;;;2.17;;
45867;SDS011;31582;45.490;7.860;2023-05-07T19:24:16;3.70;;;3.30;;
45867;SDS011;31582;45.490;7.860;2023-05-07T19:26:43;4.07;;;3.20;;
45867;SDS011;31582;45.490;7.860;2023-05-07T19:29:10;3.22;;;2.85;;
45867;SDS011;31582;45.490;7.860;2023-05-07T19:31:43;3.45;;;2.83;;
45867;SDS011;31582;45.490;7.860;2023-05-07T19:34:11;3.55;;;3.00;;
45867;SDS011;31582;45.490;7.860;2023-05-07T19:36:40;4.28;;;2.88;;
45867;SDS011;31582;45.490;7.860;2023-05-07T19:39:09;3.25;;;2.72;;
45867;SDS011;31582;45.490;7.860;2023-05-07T19:41:37;3.75;;;2.50;;
45867;SDS011;31582;45.490;7.860;2023-05-07T19:44:04;3.33;;;2.83;;
45867;SDS011;31582;45.490;7.860;2023-05-07T19:46:30;3.08;;;2.78;;
45867;SDS011;31582;45.490;7.860;2023-05-07T19:48:58;3.28;;;2.97;;
45867;SDS011;31582;45.490;7.860;2023-05-07T19:51:25;3.72;;;2.97;;
45867;SDS011;31582;45.490;7.860;2023-05-07T19:53:57;2.97;;;2.50;;
45867;SDS011;31582;45.490;7.860;2023-05-07T19:56:25;3.85;;;2.75;;
45867;SDS011;31582;45.490;7.860;2023-05-07T19:58:52;2.60;;;2.40;;
45867;SDS011;31582;45.490;7.860;2023-05-07T20:01:19;4.22;;;2.80;;
45867;SDS011;31582;45.490;7.860;2023-05-07T20:03:46;3.75;;;2.80;;
45867;SDS011;31582;45.490;7.860;2023-05-07T20:06:13;3.42;;;2.70;;
45867;SDS011;31582;45.490;7.860;2023-05-07T20:08:40;3.08;;;2.85;;
45867;SDS011;31582;45.490;7.860;2023-05-07T20:11:08;5.55;;;2.78;;
45867;SDS011;31582;45.490;7.860;2023-05-07T20:13:36;3.93;;;2.60;;
45867;SDS011;31582;45.490;7.860;2023-05-07T20:16:03;3.50;;;2.88;;
45867;SDS011;31582;45.490;7.860;2023-05-07T20:18:30;3.10;;;2.70;;
45867;SDS011;31582;45.490;7.860;2023-05-07T20:20:57;3.08;;;2.78;;
45867;SDS011;31582;45.490;7.860;2023-05-07T20:23:24;3.13;;;2.40;;
45867;SDS011;31582;45.490;7.860;2023-05-07T20:25:53;2.88;;;2.67;;
45867;SDS011;31582;45.490;7.860;2023-05-07T20:28:20;3.22;;;2.92;;
45867;SDS011;31582;45.490;7.860;2023-05-07T20:30:47;3.47;;;2.50;;
45867;SDS011;31582;45.490;7.860;2023-05-07T20:33:14;2.50;;;2.30;;
45867;SDS011;31582;45.490;7.860;2023-05-07T20:35:41;3.57;;;2.60;;
45867;SDS011;31582;45.490;7.860;2023-05-07T20:38:08;2.70;;;2.50;;
45867;SDS011;31582;45.490;7.860;2023-05-07T20:40:35;2.70;;;2.43;;
45867;SDS011;31582;45.490;7.860;2023-05-07T20:43:04;3.10;;;2.40;;
45867;SDS011;31582;45.490;7.860;2023-05-07T20:45:34;2.65;;;2.45;;
45867;SDS011;31582;45.490;7.860;2023-05-07T20:48:01;3.70;;;2.70;;
45867;SDS011;31582;45.490;7.860;2023-05-07T20:50:28;2.50;;;2.30;;
45867;SDS011;31582;45.490;7.860;2023-05-07T20:52:55;3.42;;;2.80;;
45867;SDS011;31582;45.490;7.860;2023-05-07T20:55:22;2.65;;;2.45;;
45867;SDS011;31582;45.490;7.860;2023-05-07T20:57:49;3.22;;;2.42;;
45867;SDS011;31582;45.490;7.860;2023-05-07T21:00:16;2.55;;;2.28;;
45867;SDS011;31582;45.490;7.860;2023-05-07T21:02:43;2.45;;;2.25;;
45867;SDS011;31582;45.490;7.860;2023-05-07T21:05:10;3.17;;;2.70;;
45867;SDS011;31582;45.490;7.860;2023-05-07T21:07:37;2.70;;;2.50;;
45867;SDS011;31582;45.490;7.860;2023-05-07T21:10:04;2.57;;;2.37;;
45867;SDS011;31582;45.490;7.860;2023-05-07T21:12:32;2.58;;;2.28;;
45867;SDS011;31582;45.490;7.860;2023-05-07T21:15:01;2.30;;;2.10;;
45867;SDS011;31582;45.490;7.860;2023-05-07T21:17:29;2.75;;;2.55;;
45867;SDS011;31582;45.490;7.860;2023-05-07T21:19:58;2.53;;;2.00;;
45867;SDS011;31582;45.490;7.860;2023-05-07T21:22:25;2.10;;;1.90;;
45867;SDS011;31582;45.490;7.860;2023-05-07T21:24:54;2.60;;;2.17;;
45867;SDS011;31582;45.490;7.860;2023-05-07T21:27:22;2.10;;;1.90;;
45867;SDS011;31582;45.490;7.860;2023-05-07T21:29:49;1.92;;;1.83;;
45867;SDS011;31582;45.490;7.860;2023-05-07T21:32:16;2.47;;;1.95;;
45867;SDS011;31582;45.490;7.860;2023-05-07T21:34:42;2.85;;;2.13;;
45867;SDS011;31582;45.490;7.860;2023-05-07T21:37:09;3.13;;;2.28;;
45867;SDS011;31582;45.490;7.860;2023-05-07T21:39:36;2.20;;;2.00;;
45867;SDS011;31582;45.490;7.860;2023-05-07T21:42:03;2.50;;;2.15;;
45867;SDS011;31582;45.490;7.860;2023-05-07T21:44:30;2.30;;;2.20;;
45867;SDS011;31582;45.490;7.860;2023-05-07T21:46:57;2.42;;;2.22;;
45867;SDS011;31582;45.490;7.860;2023-05-07T21:49:24;3.08;;;2.38;;
45867;SDS011;31582;45.490;7.860;2023-05-07T21:51:51;2.38;;;2.17;;
45867;SDS011;31582;45.490;7.860;2023-05-07T21:54:17;2.40;;;2.20;;
45867;SDS011;31582;45.490;7.860;2023-05-07T21:56:44;3.43;;;2.50;;
45867;SDS011;31582;45.490;7.860;2023-05-07T21:59:14;2.20;;;2.00;;
45867;SDS011;31582;45.490;7.860;2023-05-07T22:01:41;2.45;;;2.25;;
45867;SDS011;31582;45.490;7.860;2023-05-07T22:04:08;2.30;;;2.08;;
45867;SDS011;31582;45.490;7.860;2023-05-07T22:06:36;2.42;;;2.22;;
45867;SDS011;31582;45.490;7.860;2023-05-07T22:09:03;2.58;;;2.20;;
45867;SDS011;31582;45.490;7.860;2023-05-07T22:11:30;2.50;;;2.30;;
45867;SDS011;31582;45.490;7.860;2023-05-07T22:13:56;2.28;;;2.08;;
45867;SDS011;31582;45.490;7.860;2023-05-07T22:16:23;2.03;;;1.83;;
45867;SDS011;31582;45.490;7.860;2023-05-07T22:18:50;2.28;;;2.08;;
45867;SDS011;31582;45.490;7.860;2023-05-07T22:21:17;2.23;;;2.03;;
45867;SDS011;31582;45.490;7.860;2023-05-07T22:23:44;2.50;;;2.30;;
45867;SDS011;31582;45.490;7.860;2023-05-07T22:26:11;2.30;;;2.13;;
45867;SDS011;31582;45.490;7.860;2023-05-07T22:28:39;2.13;;;1.95;;
45867;SDS011;31582;45.490;7.860;2023-05-07T22:31:06;2.10;;;1.95;;
45867;SDS011;31582;45.490;7.860;2023-05-07T22:33:33;2.83;;;1.85;;
45867;SDS011;31582;45.490;7.860;2023-05-07T22:36:00;2.10;;;1.88;;
45867;SDS011;31582;45.490;7.860;2023-05-07T22:38:27;1.70;;;1.60;;
45867;SDS011;31582;45.490;7.860;2023-05-07T22:40:54;1.45;;;1.35;;
45867;SDS011;31582;45.490;7.860;2023-05-07T22:43:20;2.53;;;1.70;;
45867;SDS011;31582;45.490;7.860;2023-05-07T22:45:47;2.30;;;1.75;;
45867;SDS011;31582;45.490;7.860;2023-05-07T22:48:14;1.90;;;1.48;;
45867;SDS011;31582;45.490;7.860;2023-05-07T22:50:41;3.13;;;1.83;;
45867;SDS011;31582;45.490;7.860;2023-05-07T22:53:08;1.80;;;1.70;;
45867;SDS011;31582;45.490;7.860;2023-05-07T22:55:35;1.75;;;1.50;;
45867;SDS011;31582;45.490;7.860;2023-05-07T22:58:02;2.07;;;1.77;;
45867;SDS011;31582;45.490;7.860;2023-05-07T23:00:28;1.85;;;1.75;;
45867;SDS011;31582;45.490;7.860;2023-05-07T23:02:55;2.10;;;1.88;;
45867;SDS011;31582;45.490;7.860;2023-05-07T23:05:22;1.90;;;1.40;;
45867;SDS011;31582;45.490;7.860;2023-05-07T23:07:49;1.77;;;1.67;;
45867;SDS011;31582;45.490;7.860;2023-05-07T23:10:16;1.90;;;1.80;;
45867;SDS011;31582;45.490;7.860;2023-05-07T23:12:43;1.83;;;1.73;;
45867;SDS011;31582;45.490;7.860;2023-05-07T23:15:14;1.90;;;1.67;;
45867;SDS011;31582;45.490;7.860;2023-05-07T23:17:42;2.17;;;1.58;;
45867;SDS011;31582;45.490;7.860;2023-05-07T23:20:10;1.35;;;1.25;;
45867;SDS011;31582;45.490;7.860;2023-05-07T23:22:38;1.48;;;1.38;;
45867;SDS011;31582;45.490;7.860;2023-05-07T23:25:05;1.13;;;1.05;;
45867;SDS011;31582;45.490;7.860;2023-05-07T23:27:35;1.63;;;1.43;;
45867;SDS011;31582;45.490;7.860;2023-05-07T23:30:02;1.48;;;1.30;;
45867;SDS011;31582;45.490;7.860;2023-05-07T23:32:29;1.70;;;1.30;;
45867;SDS011;31582;45.490;7.860;2023-05-07T23:34:56;1.15;;;1.00;;
45867;SDS011;31582;45.490;7.860;2023-05-07T23:37:23;1.13;;;1.02;;
45867;SDS011;31582;45.490;7.860;2023-05-07T23:39:53;1.52;;;1.15;;
45867;SDS011;31582;45.490;7.860;2023-05-07T23:42:20;2.38;;;1.48;;
45867;SDS011;31582;45.490;7.860;2023-05-07T23:44:47;1.38;;;1.27;;
45867;SDS011;31582;45.490;7.860;2023-05-07T23:47:14;1.50;;;1.38;;
45867;SDS011;31582;45.490;7.860;2023-05-07T23:49:41;1.88;;;0.98;;
45867;SDS011;31582;45.490;7.860;2023-05-07T23:52:08;1.92;;;1.10;;
45867;SDS011;31582;45.490;7.860;2023-05-07T23:54:35;2.00;;;0.98;;
45867;SDS011;31582;45.490;7.860;2023-05-07T23:57:02;2.17;;;1.15;;
45867;SDS011;31582;45.490;7.860;2023-05-07T23:59:29;1.10;;;1.00;;
